sensor_id;sensor_type;location;lat;lon;timestamp;P1;durP1;ratioP1;P2;durP2;ratioP2
35522;SDS011;61478;50.820;4.330;2023-02-28T00:00:29;13.13;;;4.85;;
35522;SDS011;61478;50.820;4.330;2023-02-28T00:02:56;8.15;;;4.70;;
35522;SDS011;61478;50.820;4.330;2023-02-28T00:05:23;14.55;;;5.65;;
35522;SDS011;61478;50.820;4.330;2023-02-28T00:07:51;7.80;;;5.28;;
35522;SDS011;61478;50.820;4.330;2023-02-28T00:10:18;10.13;;;5.32;;
35522;SDS011;61478;50.820;4.330;2023-02-28T00:12:48;8.82;;;5.10;;
35522;SDS011;61478;50.820;4.330;2023-02-28T00:15:18;11.23;;;5.35;;
35522;SDS011;61478;50.820;4.330;2023-02-28T00:17:51;10.10;;;5.15;;
35522;SDS011;61478;50.820;4.330;2023-02-28T00:20:18;8.73;;;4.65;;
35522;SDS011;61478;50.820;4.330;2023-02-28T00:22:53;10.98;;;5.40;;
35522;SDS011;61478;50.820;4.330;2023-02-28T00:25:21;11.35;;;4.63;;
35522;SDS011;61478;50.820;4.330;2023-02-28T00:27:59;10.27;;;5.55;;
35522;SDS011;61478;50.820;4.330;2023-02-28T00:30:28;9.00;;;4.75;;
35522;SDS011;61478;50.820;4.330;2023-02-28T00:33:00;10.35;;;6.68;;
35522;SDS011;61478;50.820;4.330;2023-02-28T00:35:29;10.05;;;5.35;;
35522;SDS011;61478;50.820;4.330;2023-02-28T00:37:58;7.95;;;5.55;;
35522;SDS011;61478;50.820;4.330;2023-02-28T00:40:28;11.70;;;6.97;;
35522;SDS011;61478;50.820;4.330;2023-02-28T00:42:57;17.65;;;10.93;;
35522;SDS011;61478;50.820;4.330;2023-02-28T00:45:24;17.60;;;9.55;;
35522;SDS011;61478;50.820;4.330;2023-02-28T00:47:56;20.70;;;13.68;;
35522;SDS011;61478;50.820;4.330;2023-02-28T00:53:01;11.70;;;6.88;;
35522;SDS011;61478;50.820;4.330;2023-02-28T00:55:31;15.88;;;11.25;;
35522;SDS011;61478;50.820;4.330;2023-02-28T00:57:57;13.52;;;9.25;;
35522;SDS011;61478;50.820;4.330;2023-02-28T01:00:23;14.23;;;9.90;;
35522;SDS011;61478;50.820;4.330;2023-02-28T01:02:49;15.45;;;7.80;;
35522;SDS011;61478;50.820;4.330;2023-02-28T01:05:25;11.73;;;6.75;;
35522;SDS011;61478;50.820;4.330;2023-02-28T01:07:52;11.95;;;6.55;;
35522;SDS011;61478;50.820;4.330;2023-02-28T01:10:18;11.85;;;8.32;;
35522;SDS011;61478;50.820;4.330;2023-02-28T01:12:46;15.88;;;8.48;;
35522;SDS011;61478;50.820;4.330;2023-02-28T01:15:17;13.60;;;7.88;;
35522;SDS011;61478;50.820;4.330;2023-02-28T01:17:45;17.00;;;7.78;;
35522;SDS011;61478;50.820;4.330;2023-02-28T01:20:11;15.45;;;7.22;;
35522;SDS011;61478;50.820;4.330;2023-02-28T01:22:38;13.23;;;6.00;;
35522;SDS011;61478;50.820;4.330;2023-02-28T01:25:04;10.93;;;6.38;;
35522;SDS011;61478;50.820;4.330;2023-02-28T01:27:31;12.95;;;7.65;;
35522;SDS011;61478;50.820;4.330;2023-02-28T01:29:58;12.55;;;7.18;;
35522;SDS011;61478;50.820;4.330;2023-02-28T01:32:30;10.75;;;7.40;;
35522;SDS011;61478;50.820;4.330;2023-02-28T01:34:56;11.45;;;7.03;;
35522;SDS011;61478;50.820;4.330;2023-02-28T01:37:22;13.48;;;7.43;;
35522;SDS011;61478;50.820;4.330;2023-02-28T01:39:51;14.68;;;7.88;;
35522;SDS011;61478;50.820;4.330;2023-02-28T01:42:20;9.43;;;6.13;;
35522;SDS011;61478;50.820;4.330;2023-02-28T01:47:19;9.73;;;5.72;;
35522;SDS011;61478;50.820;4.330;2023-02-28T01:49:46;9.95;;;5.95;;
35522;SDS011;61478;50.820;4.330;2023-02-28T01:52:16;11.95;;;6.55;;
35522;SDS011;61478;50.820;4.330;2023-02-28T01:54:48;8.50;;;5.57;;
35522;SDS011;61478;50.820;4.330;2023-02-28T01:57:20;14.18;;;6.55;;
35522;SDS011;61478;50.820;4.330;2023-02-28T01:59:57;9.10;;;5.10;;
35522;SDS011;61478;50.820;4.330;2023-02-28T02:02:29;13.60;;;6.65;;
35522;SDS011;61478;50.820;4.330;2023-02-28T02:04:59;8.25;;;5.28;;
35522;SDS011;61478;50.820;4.330;2023-02-28T02:07:34;9.95;;;5.80;;
35522;SDS011;61478;50.820;4.330;2023-02-28T02:10:13;12.90;;;6.30;;
35522;SDS011;61478;50.820;4.330;2023-02-28T02:21:29;9.38;;;5.93;;
35522;SDS011;61478;50.820;4.330;2023-02-28T02:24:35;9.32;;;6.10;;
35522;SDS011;61478;50.820;4.330;2023-02-28T02:27:23;12.43;;;6.30;;
35522;SDS011;61478;50.820;4.330;2023-02-28T02:35:32;11.52;;;6.63;;
35522;SDS011;61478;50.820;4.330;2023-02-28T02:41:08;11.63;;;5.88;;
35522;SDS011;61478;50.820;4.330;2023-02-28T02:43:44;16.67;;;6.97;;
35522;SDS011;61478;50.820;4.330;2023-02-28T02:46:25;11.23;;;6.38;;
35522;SDS011;61478;50.820;4.330;2023-02-28T02:48:55;11.40;;;6.07;;
35522;SDS011;61478;50.820;4.330;2023-02-28T02:51:23;11.18;;;6.45;;
35522;SDS011;61478;50.820;4.330;2023-02-28T02:53:55;9.77;;;6.43;;
35522;SDS011;61478;50.820;4.330;2023-02-28T02:56:30;12.40;;;6.40;;
35522;SDS011;61478;50.820;4.330;2023-02-28T02:59:06;8.75;;;6.35;;
35522;SDS011;61478;50.820;4.330;2023-02-28T03:01:41;10.57;;;6.40;;
35522;SDS011;61478;50.820;4.330;2023-02-28T03:04:09;9.57;;;7.00;;
35522;SDS011;61478;50.820;4.330;2023-02-28T03:06:41;12.73;;;7.03;;
35522;SDS011;61478;50.820;4.330;2023-02-28T03:09:10;14.20;;;7.95;;
35522;SDS011;61478;50.820;4.330;2023-02-28T03:11:36;11.98;;;6.97;;
35522;SDS011;61478;50.820;4.330;2023-02-28T03:16:57;14.15;;;7.30;;
35522;SDS011;61478;50.820;4.330;2023-02-28T03:28:04;13.93;;;7.63;;
35522;SDS011;61478;50.820;4.330;2023-02-28T03:30:44;15.32;;;7.55;;
35522;SDS011;61478;50.820;4.330;2023-02-28T03:34:01;15.90;;;7.60;;
35522;SDS011;61478;50.820;4.330;2023-02-28T03:36:19;9.80;;;6.90;;
35522;SDS011;61478;50.820;4.330;2023-02-28T03:38:54;12.07;;;7.80;;
35522;SDS011;61478;50.820;4.330;2023-02-28T03:41:42;14.95;;;7.95;;
35522;SDS011;61478;50.820;4.330;2023-02-28T03:44:17;13.85;;;7.43;;
35522;SDS011;61478;50.820;4.330;2023-02-28T03:46:58;13.02;;;7.93;;
35522;SDS011;61478;50.820;4.330;2023-02-28T03:49:36;9.55;;;7.78;;
35522;SDS011;61478;50.820;4.330;2023-02-28T03:52:08;15.10;;;8.35;;
35522;SDS011;61478;50.820;4.330;2023-02-28T03:54:37;17.17;;;8.52;;
35522;SDS011;61478;50.820;4.330;2023-02-28T04:02:44;13.80;;;7.93;;
35522;SDS011;61478;50.820;4.330;2023-02-28T04:05:10;11.60;;;7.85;;
35522;SDS011;61478;50.820;4.330;2023-02-28T04:07:36;16.25;;;8.82;;
35522;SDS011;61478;50.820;4.330;2023-02-28T04:10:03;11.68;;;7.82;;
35522;SDS011;61478;50.820;4.330;2023-02-28T04:12:30;17.58;;;8.13;;
35522;SDS011;61478;50.820;4.330;2023-02-28T04:14:56;11.95;;;7.97;;
35522;SDS011;61478;50.820;4.330;2023-02-28T04:17:22;12.13;;;8.60;;
35522;SDS011;61478;50.820;4.330;2023-02-28T04:19:48;15.73;;;9.35;;
35522;SDS011;61478;50.820;4.330;2023-02-28T04:22:15;13.95;;;8.68;;
35522;SDS011;61478;50.820;4.330;2023-02-28T04:24:42;14.68;;;9.15;;
35522;SDS011;61478;50.820;4.330;2023-02-28T04:27:08;11.90;;;8.90;;
35522;SDS011;61478;50.820;4.330;2023-02-28T04:29:35;13.30;;;8.68;;
35522;SDS011;61478;50.820;4.330;2023-02-28T04:32:01;14.02;;;10.27;;
35522;SDS011;61478;50.820;4.330;2023-02-28T04:34:29;17.35;;;9.25;;
35522;SDS011;61478;50.820;4.330;2023-02-28T04:36:56;14.27;;;9.77;;
35522;SDS011;61478;50.820;4.330;2023-02-28T04:39:23;11.50;;;8.57;;
35522;SDS011;61478;50.820;4.330;2023-02-28T04:41:49;12.63;;;8.60;;
35522;SDS011;61478;50.820;4.330;2023-02-28T04:44:16;13.15;;;9.02;;
35522;SDS011;61478;50.820;4.330;2023-02-28T04:46:43;13.70;;;9.85;;
35522;SDS011;61478;50.820;4.330;2023-02-28T04:49:12;13.90;;;9.75;;
35522;SDS011;61478;50.820;4.330;2023-02-28T04:51:38;16.27;;;9.50;;
35522;SDS011;61478;50.820;4.330;2023-02-28T04:54:05;20.90;;;10.38;;
35522;SDS011;61478;50.820;4.330;2023-02-28T04:56:31;21.33;;;10.40;;
35522;SDS011;61478;50.820;4.330;2023-02-28T04:58:57;11.88;;;8.75;;
35522;SDS011;61478;50.820;4.330;2023-02-28T05:01:24;13.45;;;9.23;;
35522;SDS011;61478;50.820;4.330;2023-02-28T05:03:52;14.30;;;9.70;;
35522;SDS011;61478;50.820;4.330;2023-02-28T05:06:20;13.45;;;9.90;;
35522;SDS011;61478;50.820;4.330;2023-02-28T05:08:48;18.02;;;10.20;;
35522;SDS011;61478;50.820;4.330;2023-02-28T05:13:42;21.13;;;9.77;;
35522;SDS011;61478;50.820;4.330;2023-02-28T05:16:09;21.77;;;10.05;;
35522;SDS011;61478;50.820;4.330;2023-02-28T05:18:35;19.83;;;11.10;;
35522;SDS011;61478;50.820;4.330;2023-02-28T05:21:02;17.48;;;10.88;;
35522;SDS011;61478;50.820;4.330;2023-02-28T05:23:28;16.67;;;10.52;;
35522;SDS011;61478;50.820;4.330;2023-02-28T05:25:54;19.38;;;10.27;;
35522;SDS011;61478;50.820;4.330;2023-02-28T05:28:20;18.45;;;9.98;;
35522;SDS011;61478;50.820;4.330;2023-02-28T05:30:46;14.40;;;10.55;;
35522;SDS011;61478;50.820;4.330;2023-02-28T05:33:13;16.50;;;10.13;;
35522;SDS011;61478;50.820;4.330;2023-02-28T05:35:40;17.17;;;9.50;;
35522;SDS011;61478;50.820;4.330;2023-02-28T05:38:08;15.30;;;9.02;;
35522;SDS011;61478;50.820;4.330;2023-02-28T05:40:42;17.80;;;9.30;;
35522;SDS011;61478;50.820;4.330;2023-02-28T05:43:09;15.05;;;9.52;;
35522;SDS011;61478;50.820;4.330;2023-02-28T05:45:36;16.38;;;9.23;;
35522;SDS011;61478;50.820;4.330;2023-02-28T05:48:02;14.73;;;9.30;;
35522;SDS011;61478;50.820;4.330;2023-02-28T05:50:28;15.00;;;9.00;;
35522;SDS011;61478;50.820;4.330;2023-02-28T05:52:54;12.98;;;9.25;;
35522;SDS011;61478;50.820;4.330;2023-02-28T05:55:21;17.00;;;9.60;;
35522;SDS011;61478;50.820;4.330;2023-02-28T05:57:46;25.95;;;9.90;;
35522;SDS011;61478;50.820;4.330;2023-02-28T06:00:13;18.50;;;9.27;;
35522;SDS011;61478;50.820;4.330;2023-02-28T06:02:40;19.88;;;9.90;;
35522;SDS011;61478;50.820;4.330;2023-02-28T06:05:12;12.43;;;8.85;;
35522;SDS011;61478;50.820;4.330;2023-02-28T06:07:40;12.73;;;9.30;;
35522;SDS011;61478;50.820;4.330;2023-02-28T06:10:06;18.15;;;9.52;;
35522;SDS011;61478;50.820;4.330;2023-02-28T06:12:34;16.95;;;9.30;;
35522;SDS011;61478;50.820;4.330;2023-02-28T06:15:00;11.27;;;8.57;;
35522;SDS011;61478;50.820;4.330;2023-02-28T06:17:26;15.60;;;9.27;;
35522;SDS011;61478;50.820;4.330;2023-02-28T06:19:52;18.50;;;9.73;;
35522;SDS011;61478;50.820;4.330;2023-02-28T06:22:18;18.08;;;10.05;;
35522;SDS011;61478;50.820;4.330;2023-02-28T06:24:44;20.38;;;9.98;;
35522;SDS011;61478;50.820;4.330;2023-02-28T06:27:10;16.77;;;9.68;;
35522;SDS011;61478;50.820;4.330;2023-02-28T06:29:36;15.02;;;9.13;;
35522;SDS011;61478;50.820;4.330;2023-02-28T06:32:04;14.80;;;8.98;;
35522;SDS011;61478;50.820;4.330;2023-02-28T06:34:31;13.68;;;8.90;;
35522;SDS011;61478;50.820;4.330;2023-02-28T06:36:59;12.13;;;8.57;;
35522;SDS011;61478;50.820;4.330;2023-02-28T06:39:28;23.52;;;9.90;;
35522;SDS011;61478;50.820;4.330;2023-02-28T06:41:54;14.32;;;8.93;;
35522;SDS011;61478;50.820;4.330;2023-02-28T06:44:21;18.38;;;9.18;;
35522;SDS011;61478;50.820;4.330;2023-02-28T06:46:48;18.88;;;9.05;;
35522;SDS011;61478;50.820;4.330;2023-02-28T06:49:14;15.50;;;9.30;;
35522;SDS011;61478;50.820;4.330;2023-02-28T06:51:41;18.20;;;8.07;;
35522;SDS011;61478;50.820;4.330;2023-02-28T06:54:10;19.30;;;10.05;;
35522;SDS011;61478;50.820;4.330;2023-02-28T06:56:37;13.15;;;8.57;;
35522;SDS011;61478;50.820;4.330;2023-02-28T06:59:03;29.35;;;12.38;;
35522;SDS011;61478;50.820;4.330;2023-02-28T07:01:30;19.10;;;10.52;;
35522;SDS011;61478;50.820;4.330;2023-02-28T07:03:58;18.40;;;9.35;;
35522;SDS011;61478;50.820;4.330;2023-02-28T07:06:25;20.42;;;8.90;;
35522;SDS011;61478;50.820;4.330;2023-02-28T07:08:52;22.70;;;8.75;;
35522;SDS011;61478;50.820;4.330;2023-02-28T07:11:19;16.73;;;8.35;;
35522;SDS011;61478;50.820;4.330;2023-02-28T07:13:48;14.35;;;8.93;;
35522;SDS011;61478;50.820;4.330;2023-02-28T07:16:14;27.35;;;9.55;;
35522;SDS011;61478;50.820;4.330;2023-02-28T07:18:41;14.30;;;8.50;;
35522;SDS011;61478;50.820;4.330;2023-02-28T07:21:08;19.13;;;8.90;;
35522;SDS011;61478;50.820;4.330;2023-02-28T07:23:35;24.60;;;8.50;;
35522;SDS011;61478;50.820;4.330;2023-02-28T07:26:03;17.33;;;9.18;;
35522;SDS011;61478;50.820;4.330;2023-02-28T07:28:30;12.05;;;8.10;;
35522;SDS011;61478;50.820;4.330;2023-02-28T07:30:56;13.18;;;8.25;;
35522;SDS011;61478;50.820;4.330;2023-02-28T07:33:22;16.48;;;9.02;;
35522;SDS011;61478;50.820;4.330;2023-02-28T07:35:49;17.45;;;7.50;;
35522;SDS011;61478;50.820;4.330;2023-02-28T07:38:15;19.23;;;7.88;;
35522;SDS011;61478;50.820;4.330;2023-02-28T07:40:41;22.55;;;8.30;;
35522;SDS011;61478;50.820;4.330;2023-02-28T07:43:07;14.75;;;7.70;;
35522;SDS011;61478;50.820;4.330;2023-02-28T07:45:33;16.70;;;7.45;;
35522;SDS011;61478;50.820;4.330;2023-02-28T07:48:00;15.57;;;7.80;;
35522;SDS011;61478;50.820;4.330;2023-02-28T07:50:26;11.50;;;7.40;;
35522;SDS011;61478;50.820;4.330;2023-02-28T07:52:56;15.57;;;7.85;;
35522;SDS011;61478;50.820;4.330;2023-02-28T07:55:23;14.63;;;7.53;;
35522;SDS011;61478;50.820;4.330;2023-02-28T07:57:49;11.32;;;6.85;;
35522;SDS011;61478;50.820;4.330;2023-02-28T08:00:15;17.67;;;6.28;;
35522;SDS011;61478;50.820;4.330;2023-02-28T08:02:41;20.35;;;6.88;;
35522;SDS011;61478;50.820;4.330;2023-02-28T08:05:08;27.73;;;7.05;;
35522;SDS011;61478;50.820;4.330;2023-02-28T08:07:34;12.27;;;6.13;;
35522;SDS011;61478;50.820;4.330;2023-02-28T08:10:00;12.95;;;5.93;;
35522;SDS011;61478;50.820;4.330;2023-02-28T08:12:26;13.98;;;5.78;;
35522;SDS011;61478;50.820;4.330;2023-02-28T08:14:52;11.50;;;5.32;;
35522;SDS011;61478;50.820;4.330;2023-02-28T08:17:18;13.27;;;5.97;;
35522;SDS011;61478;50.820;4.330;2023-02-28T08:19:45;11.57;;;5.55;;
35522;SDS011;61478;50.820;4.330;2023-02-28T08:22:12;13.27;;;4.85;;
35522;SDS011;61478;50.820;4.330;2023-02-28T08:24:38;10.18;;;5.13;;
35522;SDS011;61478;50.820;4.330;2023-02-28T08:27:07;18.50;;;5.30;;
35522;SDS011;61478;50.820;4.330;2023-02-28T08:29:33;12.05;;;4.47;;
35522;SDS011;61478;50.820;4.330;2023-02-28T08:32:01;8.25;;;4.10;;
35522;SDS011;61478;50.820;4.330;2023-02-28T08:34:30;7.15;;;4.63;;
35522;SDS011;61478;50.820;4.330;2023-02-28T08:36:59;11.55;;;5.40;;
35522;SDS011;61478;50.820;4.330;2023-02-28T08:39:25;7.10;;;4.38;;
35522;SDS011;61478;50.820;4.330;2023-02-28T08:41:54;7.53;;;4.22;;
35522;SDS011;61478;50.820;4.330;2023-02-28T08:44:23;10.88;;;4.85;;
35522;SDS011;61478;50.820;4.330;2023-02-28T08:46:49;7.68;;;4.35;;
35522;SDS011;61478;50.820;4.330;2023-02-28T08:49:18;7.32;;;3.67;;
35522;SDS011;61478;50.820;4.330;2023-02-28T08:51:44;8.60;;;4.35;;
35522;SDS011;61478;50.820;4.330;2023-02-28T08:54:10;12.05;;;4.90;;
35522;SDS011;61478;50.820;4.330;2023-02-28T08:56:37;11.25;;;4.63;;
35522;SDS011;61478;50.820;4.330;2023-02-28T08:59:04;8.85;;;4.63;;
35522;SDS011;61478;50.820;4.330;2023-02-28T09:01:30;6.80;;;3.72;;
35522;SDS011;61478;50.820;4.330;2023-02-28T09:03:57;4.72;;;4.07;;
35522;SDS011;61478;50.820;4.330;2023-02-28T09:06:24;8.15;;;4.18;;
35522;SDS011;61478;50.820;4.330;2023-02-28T09:08:52;8.40;;;3.83;;
35522;SDS011;61478;50.820;4.330;2023-02-28T09:11:22;10.95;;;3.75;;
35522;SDS011;61478;50.820;4.330;2023-02-28T09:13:48;9.25;;;4.50;;
35522;SDS011;61478;50.820;4.330;2023-02-28T09:16:28;10.32;;;4.32;;
35522;SDS011;61478;50.820;4.330;2023-02-28T09:18:54;14.20;;;5.68;;
35522;SDS011;61478;50.820;4.330;2023-02-28T09:21:20;6.63;;;4.43;;
35522;SDS011;61478;50.820;4.330;2023-02-28T09:23:47;9.45;;;4.10;;
35522;SDS011;61478;50.820;4.330;2023-02-28T09:26:19;9.15;;;3.55;;
35522;SDS011;61478;50.820;4.330;2023-02-28T09:28:47;7.68;;;3.78;;
35522;SDS011;61478;50.820;4.330;2023-02-28T09:31:14;6.95;;;4.15;;
35522;SDS011;61478;50.820;4.330;2023-02-28T09:33:52;9.38;;;3.97;;
35522;SDS011;61478;50.820;4.330;2023-02-28T09:36:22;5.72;;;3.78;;
35522;SDS011;61478;50.820;4.330;2023-02-28T09:38:49;7.97;;;3.60;;
35522;SDS011;61478;50.820;4.330;2023-02-28T09:41:22;6.00;;;2.80;;
35522;SDS011;61478;50.820;4.330;2023-02-28T09:43:52;8.15;;;2.80;;
35522;SDS011;61478;50.820;4.330;2023-02-28T09:49:05;6.50;;;3.35;;
35522;SDS011;61478;50.820;4.330;2023-02-28T09:54:15;8.30;;;3.15;;
35522;SDS011;61478;50.820;4.330;2023-02-28T09:56:45;7.35;;;2.90;;
35522;SDS011;61478;50.820;4.330;2023-02-28T09:59:25;6.78;;;3.25;;
35522;SDS011;61478;50.820;4.330;2023-02-28T10:05:28;8.32;;;2.95;;
35522;SDS011;61478;50.820;4.330;2023-02-28T10:08:13;6.97;;;2.80;;
35522;SDS011;61478;50.820;4.330;2023-02-28T10:16:21;6.53;;;2.63;;
35522;SDS011;61478;50.820;4.330;2023-02-28T10:18:51;4.43;;;2.80;;
35522;SDS011;61478;50.820;4.330;2023-02-28T10:26:45;5.35;;;2.78;;
35522;SDS011;61478;50.820;4.330;2023-02-28T10:29:15;4.53;;;2.05;;
35522;SDS011;61478;50.820;4.330;2023-02-28T10:31:41;4.88;;;2.50;;
35522;SDS011;61478;50.820;4.330;2023-02-28T10:34:07;7.82;;;4.18;;
35522;SDS011;61478;50.820;4.330;2023-02-28T10:36:37;4.20;;;2.53;;
35522;SDS011;61478;50.820;4.330;2023-02-28T10:42:00;3.80;;;2.25;;
35522;SDS011;61478;50.820;4.330;2023-02-28T10:44:26;8.13;;;2.60;;
35522;SDS011;61478;50.820;4.330;2023-02-28T10:46:52;10.95;;;2.67;;
35522;SDS011;61478;50.820;4.330;2023-02-28T10:49:27;3.65;;;2.45;;
35522;SDS011;61478;50.820;4.330;2023-02-28T10:51:57;7.82;;;2.90;;
35522;SDS011;61478;50.820;4.330;2023-02-28T10:54:32;9.98;;;2.58;;
35522;SDS011;61478;50.820;4.330;2023-02-28T10:59:43;3.92;;;2.30;;
35522;SDS011;61478;50.820;4.330;2023-02-28T11:05:28;5.65;;;2.20;;
35522;SDS011;61478;50.820;4.330;2023-02-28T11:07:57;6.43;;;2.00;;
35522;SDS011;61478;50.820;4.330;2023-02-28T11:10:35;9.20;;;2.40;;
35522;SDS011;61478;50.820;4.330;2023-02-28T11:13:01;3.17;;;1.95;;
35522;SDS011;61478;50.820;4.330;2023-02-28T11:15:30;6.70;;;1.90;;
35522;SDS011;61478;50.820;4.330;2023-02-28T11:18:01;6.35;;;2.67;;
35522;SDS011;61478;50.820;4.330;2023-02-28T11:20:46;4.55;;;2.38;;
35522;SDS011;61478;50.820;4.330;2023-02-28T11:23:15;6.60;;;2.20;;
35522;SDS011;61478;50.820;4.330;2023-02-28T11:25:46;2.83;;;2.10;;
35522;SDS011;61478;50.820;4.330;2023-02-28T11:33:46;3.65;;;1.90;;
35522;SDS011;61478;50.820;4.330;2023-02-28T11:36:21;6.88;;;2.13;;
35522;SDS011;61478;50.820;4.330;2023-02-28T11:38:55;3.88;;;2.42;;
35522;SDS011;61478;50.820;4.330;2023-02-28T11:46:49;3.70;;;2.08;;
35522;SDS011;61478;50.820;4.330;2023-02-28T11:55:02;9.15;;;2.53;;
35522;SDS011;61478;50.820;4.330;2023-02-28T12:00:32;3.05;;;2.60;;
35522;SDS011;61478;50.820;4.330;2023-02-28T12:24:29;4.45;;;2.50;;
35522;SDS011;61478;50.820;4.330;2023-02-28T12:27:16;4.57;;;2.35;;
35522;SDS011;61478;50.820;4.330;2023-02-28T12:32:32;8.68;;;2.30;;
35522;SDS011;61478;50.820;4.330;2023-02-28T12:35:06;6.03;;;2.33;;
35522;SDS011;61478;50.820;4.330;2023-02-28T12:37:50;7.43;;;2.33;;
35522;SDS011;61478;50.820;4.330;2023-02-28T12:40:23;4.85;;;2.63;;
35522;SDS011;61478;50.820;4.330;2023-02-28T12:43:12;6.68;;;2.35;;
35522;SDS011;61478;50.820;4.330;2023-02-28T12:45:52;7.18;;;3.30;;
35522;SDS011;61478;50.820;4.330;2023-02-28T12:48:25;6.90;;;2.50;;
35522;SDS011;61478;50.820;4.330;2023-02-28T12:50:56;9.55;;;3.13;;
35522;SDS011;61478;50.820;4.330;2023-02-28T12:53:29;2.83;;;1.55;;
35522;SDS011;61478;50.820;4.330;2023-02-28T12:58:45;6.85;;;2.80;;
35522;SDS011;61478;50.820;4.330;2023-02-28T13:07:16;7.07;;;2.40;;
35522;SDS011;61478;50.820;4.330;2023-02-28T13:09:52;4.35;;;2.53;;
35522;SDS011;61478;50.820;4.330;2023-02-28T13:12:22;3.50;;;2.22;;
35522;SDS011;61478;50.820;4.330;2023-02-28T13:14:49;6.80;;;2.40;;
35522;SDS011;61478;50.820;4.330;2023-02-28T13:17:19;5.90;;;2.15;;
35522;SDS011;61478;50.820;4.330;2023-02-28T13:24:54;4.68;;;2.08;;
35522;SDS011;61478;50.820;4.330;2023-02-28T13:27:31;5.25;;;2.20;;
35522;SDS011;61478;50.820;4.330;2023-02-28T13:38:33;3.35;;;2.20;;
35522;SDS011;61478;50.820;4.330;2023-02-28T13:44:08;3.20;;;2.17;;
35522;SDS011;61478;50.820;4.330;2023-02-28T13:52:14;5.97;;;2.50;;
35522;SDS011;61478;50.820;4.330;2023-02-28T14:00:21;3.58;;;2.05;;
35522;SDS011;61478;50.820;4.330;2023-02-28T14:05:41;5.05;;;2.10;;
35522;SDS011;61478;50.820;4.330;2023-02-28T14:08:29;3.90;;;2.25;;
35522;SDS011;61478;50.820;4.330;2023-02-28T14:11:05;5.57;;;2.17;;
35522;SDS011;61478;50.820;4.330;2023-02-28T14:13:39;7.15;;;2.40;;
35522;SDS011;61478;50.820;4.330;2023-02-28T14:16:20;4.28;;;2.72;;
35522;SDS011;61478;50.820;4.330;2023-02-28T14:19:01;6.25;;;2.63;;
35522;SDS011;61478;50.820;4.330;2023-02-28T14:21:35;7.72;;;2.83;;
35522;SDS011;61478;50.820;4.330;2023-02-28T14:27:00;7.85;;;3.20;;
35522;SDS011;61478;50.820;4.330;2023-02-28T14:32:37;6.80;;;2.50;;
35522;SDS011;61478;50.820;4.330;2023-02-28T14:35:20;3.83;;;2.13;;
35522;SDS011;61478;50.820;4.330;2023-02-28T14:38:19;4.35;;;2.35;;
35522;SDS011;61478;50.820;4.330;2023-02-28T14:41:13;3.78;;;2.58;;
35522;SDS011;61478;50.820;4.330;2023-02-28T14:43:50;6.82;;;3.08;;
35522;SDS011;61478;50.820;4.330;2023-02-28T14:46:27;8.13;;;2.92;;
35522;SDS011;61478;50.820;4.330;2023-02-28T14:48:59;6.35;;;2.83;;
35522;SDS011;61478;50.820;4.330;2023-02-28T14:51:26;2.67;;;2.17;;
35522;SDS011;61478;50.820;4.330;2023-02-28T14:53:59;4.05;;;2.38;;
35522;SDS011;61478;50.820;4.330;2023-02-28T14:56:48;3.35;;;2.35;;
35522;SDS011;61478;50.820;4.330;2023-02-28T14:59:26;6.47;;;2.88;;
35522;SDS011;61478;50.820;4.330;2023-02-28T15:04:59;4.18;;;2.83;;
35522;SDS011;61478;50.820;4.330;2023-02-28T15:07:27;8.70;;;2.47;;
35522;SDS011;61478;50.820;4.330;2023-02-28T15:10:13;6.18;;;2.75;;
35522;SDS011;61478;50.820;4.330;2023-02-28T15:15:19;8.35;;;2.40;;
35522;SDS011;61478;50.820;4.330;2023-02-28T15:17:46;4.03;;;2.72;;
35522;SDS011;61478;50.820;4.330;2023-02-28T15:20:17;13.18;;;2.95;;
35522;SDS011;61478;50.820;4.330;2023-02-28T15:22:44;7.03;;;2.75;;
35522;SDS011;61478;50.820;4.330;2023-02-28T15:25:13;7.43;;;3.25;;
35522;SDS011;61478;50.820;4.330;2023-02-28T15:27:45;6.00;;;2.58;;
35522;SDS011;61478;50.820;4.330;2023-02-28T15:30:16;3.38;;;2.70;;
35522;SDS011;61478;50.820;4.330;2023-02-28T15:32:45;6.00;;;2.65;;
35522;SDS011;61478;50.820;4.330;2023-02-28T15:35:47;6.75;;;3.67;;
35522;SDS011;61478;50.820;4.330;2023-02-28T15:38:24;6.72;;;3.00;;
35522;SDS011;61478;50.820;4.330;2023-02-28T15:40:52;8.13;;;2.72;;
35522;SDS011;61478;50.820;4.330;2023-02-28T15:48:47;4.50;;;3.17;;
35522;SDS011;61478;50.820;4.330;2023-02-28T15:51:20;6.38;;;2.65;;
35522;SDS011;61478;50.820;4.330;2023-02-28T15:53:51;4.13;;;2.85;;
35522;SDS011;61478;50.820;4.330;2023-02-28T15:58:50;7.70;;;3.28;;
35522;SDS011;61478;50.820;4.330;2023-02-28T16:01:29;4.38;;;2.38;;
35522;SDS011;61478;50.820;4.330;2023-02-28T16:04:01;7.65;;;2.72;;
35522;SDS011;61478;50.820;4.330;2023-02-28T16:09:04;6.82;;;3.08;;
35522;SDS011;61478;50.820;4.330;2023-02-28T16:11:33;6.95;;;3.47;;
35522;SDS011;61478;50.820;4.330;2023-02-28T16:14:01;3.17;;;2.67;;
35522;SDS011;61478;50.820;4.330;2023-02-28T16:16:28;4.22;;;2.40;;
35522;SDS011;61478;50.820;4.330;2023-02-28T16:18:56;5.22;;;2.80;;
35522;SDS011;61478;50.820;4.330;2023-02-28T16:21:22;8.27;;;3.70;;
35522;SDS011;61478;50.820;4.330;2023-02-28T16:23:50;3.30;;;2.70;;
35522;SDS011;61478;50.820;4.330;2023-02-28T16:26:18;6.07;;;2.85;;
35522;SDS011;61478;50.820;4.330;2023-02-28T16:28:49;5.45;;;3.25;;
35522;SDS011;61478;50.820;4.330;2023-02-28T16:31:16;12.35;;;3.15;;
35522;SDS011;61478;50.820;4.330;2023-02-28T16:33:43;4.47;;;3.17;;
35522;SDS011;61478;50.820;4.330;2023-02-28T16:36:14;8.15;;;3.63;;
35522;SDS011;61478;50.820;4.330;2023-02-28T16:38:45;8.50;;;3.15;;
35522;SDS011;61478;50.820;4.330;2023-02-28T16:41:16;5.25;;;2.80;;
35522;SDS011;61478;50.820;4.330;2023-02-28T16:43:47;5.53;;;3.03;;
35522;SDS011;61478;50.820;4.330;2023-02-28T16:46:16;8.75;;;3.42;;
35522;SDS011;61478;50.820;4.330;2023-02-28T16:48:43;8.32;;;2.83;;
35522;SDS011;61478;50.820;4.330;2023-02-28T16:51:13;6.03;;;3.60;;
35522;SDS011;61478;50.820;4.330;2023-02-28T16:53:40;6.93;;;2.60;;
35522;SDS011;61478;50.820;4.330;2023-02-28T16:56:10;8.85;;;3.28;;
35522;SDS011;61478;50.820;4.330;2023-02-28T16:58:42;7.03;;;3.17;;
35522;SDS011;61478;50.820;4.330;2023-02-28T17:01:10;8.73;;;2.90;;
35522;SDS011;61478;50.820;4.330;2023-02-28T17:03:36;5.60;;;3.65;;
35522;SDS011;61478;50.820;4.330;2023-02-28T17:06:03;8.07;;;3.30;;
35522;SDS011;61478;50.820;4.330;2023-02-28T17:08:30;6.40;;;2.90;;
35522;SDS011;61478;50.820;4.330;2023-02-28T17:10:57;14.50;;;3.90;;
35522;SDS011;61478;50.820;4.330;2023-02-28T17:13:24;6.40;;;3.00;;
35522;SDS011;61478;50.820;4.330;2023-02-28T17:15:50;6.97;;;2.88;;
35522;SDS011;61478;50.820;4.330;2023-02-28T17:18:17;10.77;;;4.05;;
35522;SDS011;61478;50.820;4.330;2023-02-28T17:20:44;6.03;;;3.10;;
35522;SDS011;61478;50.820;4.330;2023-02-28T17:23:11;9.95;;;3.10;;
35522;SDS011;61478;50.820;4.330;2023-02-28T17:25:37;5.25;;;2.50;;
35522;SDS011;61478;50.820;4.330;2023-02-28T17:28:03;8.95;;;3.38;;
35522;SDS011;61478;50.820;4.330;2023-02-28T17:30:30;7.40;;;3.25;;
35522;SDS011;61478;50.820;4.330;2023-02-28T17:32:58;6.10;;;3.10;;
35522;SDS011;61478;50.820;4.330;2023-02-28T17:35:25;4.40;;;2.88;;
35522;SDS011;61478;50.820;4.330;2023-02-28T17:37:51;11.52;;;3.75;;
35522;SDS011;61478;50.820;4.330;2023-02-28T17:40:19;18.38;;;3.75;;
35522;SDS011;61478;50.820;4.330;2023-02-28T17:42:47;13.27;;;4.07;;
35522;SDS011;61478;50.820;4.330;2023-02-28T17:45:13;8.27;;;4.40;;
35522;SDS011;61478;50.820;4.330;2023-02-28T17:47:40;5.97;;;3.15;;
35522;SDS011;61478;50.820;4.330;2023-02-28T17:50:19;5.88;;;3.50;;
35522;SDS011;61478;50.820;4.330;2023-02-28T17:52:47;12.27;;;3.80;;